sensor_id;sensor_type;location;lat;lon;timestamp;pressure;altitude;pressure_sealevel;temperature;humidity
10688;BME280;5392;42.688;23.298;2023-08-21T00:01:39;57313.22;;;-144.48;68.25
10688;BME280;5392;42.688;23.298;2023-08-21T00:04:05;57267.31;;;-144.48;68.14
10688;BME280;5392;42.688;23.298;2023-08-21T00:06:32;57323.66;;;-144.48;68.46
10688;BME280;5392;42.688;23.298;2023-08-21T00:09:01;57284.00;;;-144.48;67.90
10688;BME280;5392;42.688;23.298;2023-08-21T00:11:28;57267.31;;;-144.48;67.92
10688;BME280;5392;42.688;23.298;2023-08-21T00:13:55;57256.88;;;-144.48;67.98
10688;BME280;5392;42.688;23.298;2023-08-21T00:16:22;57281.94;;;-144.48;68.74
10688;BME280;5392;42.688;23.298;2023-08-21T00:18:49;57290.28;;;-144.48;68.60
10688;BME280;5392;42.688;23.298;2023-08-21T00:21:16;57223.50;;;-144.48;68.81
10688;BME280;5392;42.688;23.298;2023-08-21T00:23:43;57294.44;;;-144.48;69.11
10688;BME280;5392;42.688;23.298;2023-08-21T00:26:10;57294.44;;;-144.48;69.10
10688;BME280;5392;42.688;23.298;2023-08-21T00:28:37;57319.50;;;-144.48;69.42
10688;BME280;5392;42.688;23.298;2023-08-21T00:31:04;57286.09;;;-144.48;69.96
10688;BME280;5392;42.688;23.298;2023-08-21T00:33:32;57357.06;;;-144.48;69.90
10688;BME280;5392;42.688;23.298;2023-08-21T00:35:59;57284.00;;;-144.48;69.66
10688;BME280;5392;42.688;23.298;2023-08-21T00:38:26;57296.53;;;-144.48;69.91
10688;BME280;5392;42.688;23.298;2023-08-21T00:40:53;57267.31;;;-144.48;70.79
10688;BME280;5392;42.688;23.298;2023-08-21T00:43:20;57304.88;;;-144.48;71.69
10688;BME280;5392;42.688;23.298;2023-08-21T00:45:48;57321.59;;;-144.48;71.91
10688;BME280;5392;42.688;23.298;2023-08-21T00:48:17;57277.75;;;-144.48;72.09
10688;BME280;5392;42.688;23.298;2023-08-21T00:50:45;57250.63;;;-144.48;72.40
10688;BME280;5392;42.688;23.298;2023-08-21T00:53:12;57284.00;;;-144.48;72.89
10688;BME280;5392;42.688;23.298;2023-08-21T00:55:40;57275.66;;;-144.48;72.77
10688;BME280;5392;42.688;23.298;2023-08-21T00:58:09;57254.78;;;-144.48;73.40
10688;BME280;5392;42.688;23.298;2023-08-21T01:00:38;57286.09;;;-144.48;73.84
10688;BME280;5392;42.688;23.298;2023-08-21T01:03:05;57269.41;;;-144.48;74.28
10688;BME280;5392;42.688;23.298;2023-08-21T01:05:32;57313.22;;;-144.48;73.53
10688;BME280;5392;42.688;23.298;2023-08-21T01:08:06;57298.63;;;-144.48;73.79
10688;BME280;5392;42.688;23.298;2023-08-21T01:10:53;57288.19;;;-144.48;73.19
10688;BME280;5392;42.688;23.298;2023-08-21T01:13:34;57300.72;;;-144.48;73.37
10688;BME280;5392;42.688;23.298;2023-08-21T01:16:07;57269.41;;;-144.48;73.03
10688;BME280;5392;42.688;23.298;2023-08-21T01:18:35;57315.31;;;-144.48;73.18
10688;BME280;5392;42.688;23.298;2023-08-21T01:21:03;57281.94;;;-144.48;73.77
10688;BME280;5392;42.688;23.298;2023-08-21T01:23:35;57288.19;;;-144.48;74.23
10688;BME280;5392;42.688;23.298;2023-08-21T01:26:02;57271.50;;;-144.48;74.00
10688;BME280;5392;42.688;23.298;2023-08-21T01:28:30;57288.19;;;-144.48;73.27
10688;BME280;5392;42.688;23.298;2023-08-21T01:33:33;57267.31;;;-144.48;73.99
10688;BME280;5392;42.688;23.298;2023-08-21T01:36:03;57273.56;;;-144.48;74.28
10688;BME280;5392;42.688;23.298;2023-08-21T01:38:33;57281.94;;;-144.48;74.16
10688;BME280;5392;42.688;23.298;2023-08-21T01:41:02;57311.16;;;-144.48;73.41
10688;BME280;5392;42.688;23.298;2023-08-21T01:43:29;57292.38;;;-144.48;73.27
10688;BME280;5392;42.688;23.298;2023-08-21T01:45:56;57269.41;;;-144.48;73.58
10688;BME280;5392;42.688;23.298;2023-08-21T01:48:23;57290.28;;;-144.48;74.15
10688;BME280;5392;42.688;23.298;2023-08-21T01:50:50;57261.06;;;-144.48;75.08
10688;BME280;5392;42.688;23.298;2023-08-21T01:53:17;57288.19;;;-144.48;75.88
10688;BME280;5392;42.688;23.298;2023-08-21T01:55:44;57267.31;;;-144.48;76.99
10688;BME280;5392;42.688;23.298;2023-08-21T01:58:10;57311.16;;;-144.48;77.20
10688;BME280;5392;42.688;23.298;2023-08-21T02:00:37;57296.53;;;-144.48;77.15
10688;BME280;5392;42.688;23.298;2023-08-21T02:03:04;57321.59;;;-144.48;77.00
10688;BME280;5392;42.688;23.298;2023-08-21T02:05:37;57281.94;;;-144.48;76.11
10688;BME280;5392;42.688;23.298;2023-08-21T02:08:06;57269.41;;;-144.48;76.43
10688;BME280;5392;42.688;23.298;2023-08-21T02:10:33;57313.22;;;-144.48;76.99
10688;BME280;5392;42.688;23.298;2023-08-21T02:12:59;57325.75;;;-144.48;76.82
10688;BME280;5392;42.688;23.298;2023-08-21T02:15:26;57261.06;;;-144.48;76.94
10688;BME280;5392;42.688;23.298;2023-08-21T02:17:53;57290.28;;;-144.48;76.79
10688;BME280;5392;42.688;23.298;2023-08-21T02:20:21;57265.22;;;-144.48;76.59
10688;BME280;5392;42.688;23.298;2023-08-21T02:22:47;57306.97;;;-144.48;76.31
10688;BME280;5392;42.688;23.298;2023-08-21T02:25:14;57290.28;;;-144.48;76.10
10688;BME280;5392;42.688;23.298;2023-08-21T02:27:41;57313.22;;;-144.48;75.52
10688;BME280;5392;42.688;23.298;2023-08-21T02:30:08;57296.53;;;-144.48;75.68
10688;BME280;5392;42.688;23.298;2023-08-21T02:32:44;57258.97;;;-144.48;75.94
10688;BME280;5392;42.688;23.298;2023-08-21T02:35:10;57325.75;;;-144.48;76.12
10688;BME280;5392;42.688;23.298;2023-08-21T02:37:37;57313.22;;;-144.48;76.16
10688;BME280;5392;42.688;23.298;2023-08-21T02:40:06;57300.72;;;-144.48;76.22
10688;BME280;5392;42.688;23.298;2023-08-21T02:42:35;57313.22;;;-144.48;76.42
10688;BME280;5392;42.688;23.298;2023-08-21T02:45:03;57275.66;;;-144.48;76.67
10688;BME280;5392;42.688;23.298;2023-08-21T02:47:38;57281.94;;;-144.48;76.94
10688;BME280;5392;42.688;23.298;2023-08-21T02:50:07;57256.88;;;-144.48;78.43
10688;BME280;5392;42.688;23.298;2023-08-21T02:52:34;57277.75;;;-144.48;78.26
10688;BME280;5392;42.688;23.298;2023-08-21T02:55:03;57300.72;;;-144.48;78.63
10688;BME280;5392;42.688;23.298;2023-08-21T02:57:30;57309.06;;;-144.48;78.90
10688;BME280;5392;42.688;23.298;2023-08-21T02:59:57;57313.22;;;-144.48;79.30
10688;BME280;5392;42.688;23.298;2023-08-21T03:02:24;57294.44;;;-144.48;79.31
10688;BME280;5392;42.688;23.298;2023-08-21T03:04:51;57319.50;;;-144.48;79.78
10688;BME280;5392;42.688;23.298;2023-08-21T03:07:18;57256.88;;;-144.48;79.65
10688;BME280;5392;42.688;23.298;2023-08-21T03:09:46;57296.53;;;-144.48;79.10
10688;BME280;5392;42.688;23.298;2023-08-21T03:12:16;57321.59;;;-144.48;80.16
10688;BME280;5392;42.688;23.298;2023-08-21T03:14:43;57309.06;;;-144.48;80.63
10688;BME280;5392;42.688;23.298;2023-08-21T03:17:10;57302.81;;;-144.48;81.26
10688;BME280;5392;42.688;23.298;2023-08-21T03:19:36;57311.16;;;-144.48;81.52
10688;BME280;5392;42.688;23.298;2023-08-21T03:22:03;57290.28;;;-144.48;81.50
10688;BME280;5392;42.688;23.298;2023-08-21T03:24:30;57317.41;;;-144.48;81.83
10688;BME280;5392;42.688;23.298;2023-08-21T03:26:57;57323.66;;;-144.48;82.08
10688;BME280;5392;42.688;23.298;2023-08-21T03:29:24;57306.97;;;-144.48;82.95
10688;BME280;5392;42.688;23.298;2023-08-21T03:31:52;57292.38;;;-144.48;83.59
10688;BME280;5392;42.688;23.298;2023-08-21T03:34:19;57263.16;;;-144.48;84.17
10688;BME280;5392;42.688;23.298;2023-08-21T03:36:46;57332.03;;;-144.48;84.70
10688;BME280;5392;42.688;23.298;2023-08-21T03:39:12;57288.19;;;-144.48;85.22
10688;BME280;5392;42.688;23.298;2023-08-21T03:41:39;57313.22;;;-144.48;86.27
10688;BME280;5392;42.688;23.298;2023-08-21T03:44:06;57311.16;;;-144.48;86.99
10688;BME280;5392;42.688;23.298;2023-08-21T03:46:33;57317.41;;;-144.48;86.85
10688;BME280;5392;42.688;23.298;2023-08-21T03:49:00;57281.94;;;-144.48;86.77
10688;BME280;5392;42.688;23.298;2023-08-21T03:51:27;57273.56;;;-144.48;86.89
10688;BME280;5392;42.688;23.298;2023-08-21T03:53:54;57317.41;;;-144.48;86.00
10688;BME280;5392;42.688;23.298;2023-08-21T03:56:20;57286.09;;;-144.48;84.58
10688;BME280;5392;42.688;23.298;2023-08-21T03:58:48;57292.38;;;-144.48;83.95
10688;BME280;5392;42.688;23.298;2023-08-21T04:01:15;57258.97;;;-144.48;82.88
10688;BME280;5392;42.688;23.298;2023-08-21T04:03:42;57271.50;;;-144.48;79.88
10688;BME280;5392;42.688;23.298;2023-08-21T04:06:09;57236.00;;;-144.48;78.31
10688;BME280;5392;42.688;23.298;2023-08-21T04:08:36;57263.16;;;-144.48;76.44
10688;BME280;5392;42.688;23.298;2023-08-21T04:11:05;57231.84;;;-144.48;74.15
10688;BME280;5392;42.688;23.298;2023-08-21T04:13:33;57288.19;;;-144.48;71.18
10688;BME280;5392;42.688;23.298;2023-08-21T04:15:59;57263.16;;;-144.48;69.30
10688;BME280;5392;42.688;23.298;2023-08-21T04:18:26;57279.84;;;-144.48;67.99
10688;BME280;5392;42.688;23.298;2023-08-21T04:21:07;57267.31;;;-144.48;66.26
10688;BME280;5392;42.688;23.298;2023-08-21T04:23:34;57248.53;;;-144.48;63.79
10688;BME280;5392;42.688;23.298;2023-08-21T04:26:01;57248.53;;;-144.48;61.93
10688;BME280;5392;42.688;23.298;2023-08-21T04:28:32;57271.50;;;-144.48;59.83
10688;BME280;5392;42.688;23.298;2023-08-21T04:31:00;57225.56;;;-144.48;58.40
10688;BME280;5392;42.688;23.298;2023-08-21T04:33:28;57242.28;;;-144.48;58.04
10688;BME280;5392;42.688;23.298;2023-08-21T04:35:55;57221.41;;;-144.48;57.33
10688;BME280;5392;42.688;23.298;2023-08-21T04:38:22;57196.34;;;-144.48;56.92
10688;BME280;5392;42.688;23.298;2023-08-21T04:40:49;57217.22;;;-144.48;55.78
10688;BME280;5392;42.688;23.298;2023-08-21T04:43:17;57208.88;;;-144.48;54.66
10688;BME280;5392;42.688;23.298;2023-08-21T04:45:51;57227.66;;;-144.48;53.86
10688;BME280;5392;42.688;23.298;2023-08-21T04:48:19;57208.88;;;-144.48;53.28
10688;BME280;5392;42.688;23.298;2023-08-21T04:50:47;57206.78;;;-144.48;52.20
10688;BME280;5392;42.688;23.298;2023-08-21T04:53:14;57202.63;;;-144.48;51.16
10688;BME280;5392;42.688;23.298;2023-08-21T04:55:41;57183.84;;;-144.48;50.54
10688;BME280;5392;42.688;23.298;2023-08-21T04:58:08;57219.31;;;-144.48;49.78
10688;BME280;5392;42.688;23.298;2023-08-21T05:00:35;57208.88;;;-144.48;48.82
10688;BME280;5392;42.688;23.298;2023-08-21T05:03:03;57200.53;;;-144.48;48.65
10688;BME280;5392;42.688;23.298;2023-08-21T05:05:30;57152.53;;;-144.48;49.00
10688;BME280;5392;42.688;23.298;2023-08-21T05:07:56;57185.91;;;-144.48;49.13
10688;BME280;5392;42.688;23.298;2023-08-21T05:10:23;57152.53;;;-144.48;49.23
10688;BME280;5392;42.688;23.298;2023-08-21T05:12:50;57225.56;;;-144.48;48.90
10688;BME280;5392;42.688;23.298;2023-08-21T05:15:17;57171.31;;;-144.48;47.96
10688;BME280;5392;42.688;23.298;2023-08-21T05:17:44;57179.66;;;-144.48;48.47
10688;BME280;5392;42.688;23.298;2023-08-21T05:20:10;57181.75;;;-144.48;47.56
10688;BME280;5392;42.688;23.298;2023-08-21T05:22:40;57148.34;;;-144.48;48.12
10688;BME280;5392;42.688;23.298;2023-08-21T05:25:08;57196.34;;;-144.48;46.88
10688;BME280;5392;42.688;23.298;2023-08-21T05:27:35;57179.66;;;-144.48;46.81
10688;BME280;5392;42.688;23.298;2023-08-21T05:30:03;57190.09;;;-144.48;46.34
10688;BME280;5392;42.688;23.298;2023-08-21T05:32:30;57167.13;;;-144.48;47.30
10688;BME280;5392;42.688;23.298;2023-08-21T05:34:57;57217.22;;;-144.48;46.84
10688;BME280;5392;42.688;23.298;2023-08-21T05:37:23;57194.25;;;-144.48;45.91
10688;BME280;5392;42.688;23.298;2023-08-21T05:39:50;57154.59;;;-144.48;45.52
10688;BME280;5392;42.688;23.298;2023-08-21T05:42:17;57165.03;;;-144.48;44.74
10688;BME280;5392;42.688;23.298;2023-08-21T05:44:44;57140.00;;;-144.48;44.45
10688;BME280;5392;42.688;23.298;2023-08-21T05:47:11;57183.84;;;-144.48;44.85
10688;BME280;5392;42.688;23.298;2023-08-21T05:49:37;57171.31;;;-144.48;44.96
10688;BME280;5392;42.688;23.298;2023-08-21T05:52:05;57194.25;;;-144.48;44.47
10688;BME280;5392;42.688;23.298;2023-08-21T05:54:31;57171.31;;;-144.48;43.87
10688;BME280;5392;42.688;23.298;2023-08-21T05:56:58;57173.41;;;-144.48;43.33
10688;BME280;5392;42.688;23.298;2023-08-21T05:59:32;57173.41;;;-144.48;43.22
10688;BME280;5392;42.688;23.298;2023-08-21T06:01:59;57129.56;;;-144.48;42.93
10688;BME280;5392;42.688;23.298;2023-08-21T06:04:26;57087.81;;;-144.48;42.38
10688;BME280;5392;42.688;23.298;2023-08-21T06:06:54;57148.34;;;-144.48;41.62
10688;BME280;5392;42.688;23.298;2023-08-21T06:09:20;57137.91;;;-144.48;42.30
10688;BME280;5392;42.688;23.298;2023-08-21T06:11:48;57144.19;;;-144.48;42.82
10688;BME280;5392;42.688;23.298;2023-08-21T06:14:15;57152.53;;;-144.48;43.42
10688;BME280;5392;42.688;23.298;2023-08-21T06:16:41;57173.41;;;-144.48;42.48
10688;BME280;5392;42.688;23.298;2023-08-21T06:19:10;57183.84;;;-144.48;43.27
10688;BME280;5392;42.688;23.298;2023-08-21T06:21:37;57150.44;;;-144.48;43.49
10688;BME280;5392;42.688;23.298;2023-08-21T06:24:03;57144.19;;;-144.48;42.33
10688;BME280;5392;42.688;23.298;2023-08-21T06:26:30;57083.66;;;-144.48;41.53
10688;BME280;5392;42.688;23.298;2023-08-21T06:28:57;57125.38;;;-144.48;41.33
10688;BME280;5392;42.688;23.298;2023-08-21T06:31:24;57108.69;;;-144.48;42.17
10688;BME280;5392;42.688;23.298;2023-08-21T06:33:51;57148.34;;;-144.48;41.06
10688;BME280;5392;42.688;23.298;2023-08-21T06:36:18;57160.88;;;-144.48;41.01
10688;BME280;5392;42.688;23.298;2023-08-21T06:38:44;57092.00;;;-144.48;40.21
10688;BME280;5392;42.688;23.298;2023-08-21T06:41:11;57137.91;;;-144.48;39.90
10688;BME280;5392;42.688;23.298;2023-08-21T06:43:38;57117.03;;;-144.48;39.41
10688;BME280;5392;42.688;23.298;2023-08-21T06:46:10;57119.13;;;-144.48;40.61
10688;BME280;5392;42.688;23.298;2023-08-21T06:48:39;57100.34;;;-144.48;40.95
10688;BME280;5392;42.688;23.298;2023-08-21T06:51:09;57094.09;;;-144.48;40.34
10688;BME280;5392;42.688;23.298;2023-08-21T06:53:36;57123.31;;;-144.48;40.56
10688;BME280;5392;42.688;23.298;2023-08-21T06:56:03;57131.66;;;-144.48;40.58
10688;BME280;5392;42.688;23.298;2023-08-21T06:58:30;57092.00;;;-144.48;40.39
10688;BME280;5392;42.688;23.298;2023-08-21T07:00:57;57142.09;;;-144.48;39.44
10688;BME280;5392;42.688;23.298;2023-08-21T07:03:23;57104.53;;;-144.48;40.13
10688;BME280;5392;42.688;23.298;2023-08-21T07:05:58;57094.09;;;-144.48;39.99
10688;BME280;5392;42.688;23.298;2023-08-21T07:08:25;57146.25;;;-144.48;39.49
10688;BME280;5392;42.688;23.298;2023-08-21T07:10:53;57135.81;;;-144.48;40.09
10688;BME280;5392;42.688;23.298;2023-08-21T07:13:20;57146.25;;;-144.48;39.92
10688;BME280;5392;42.688;23.298;2023-08-21T07:15:47;57121.22;;;-144.48;40.21
10688;BME280;5392;42.688;23.298;2023-08-21T07:18:14;57129.56;;;-144.48;40.50
10688;BME280;5392;42.688;23.298;2023-08-21T07:20:41;57158.78;;;-144.48;40.29
10688;BME280;5392;42.688;23.298;2023-08-21T07:23:08;57142.09;;;-144.48;40.54
10688;BME280;5392;42.688;23.298;2023-08-21T07:25:34;57129.56;;;-144.48;40.86
10688;BME280;5392;42.688;23.298;2023-08-21T07:28:01;57125.38;;;-144.48;41.25
10688;BME280;5392;42.688;23.298;2023-08-21T07:30:28;57150.44;;;-144.48;40.17
10688;BME280;5392;42.688;23.298;2023-08-21T07:32:55;57112.88;;;-144.48;39.64
10688;BME280;5392;42.688;23.298;2023-08-21T07:35:22;57100.34;;;-144.48;39.71
10688;BME280;5392;42.688;23.298;2023-08-21T07:37:48;57129.56;;;-144.48;39.50
10688;BME280;5392;42.688;23.298;2023-08-21T07:40:15;57102.44;;;-144.48;39.48
10688;BME280;5392;42.688;23.298;2023-08-21T07:42:42;57100.34;;;-144.48;39.30
10688;BME280;5392;42.688;23.298;2023-08-21T07:45:09;57112.88;;;-144.48;39.22
10688;BME280;5392;42.688;23.298;2023-08-21T07:47:37;57096.16;;;-144.48;38.30
10688;BME280;5392;42.688;23.298;2023-08-21T07:50:08;57098.25;;;-144.48;38.17
10688;BME280;5392;42.688;23.298;2023-08-21T07:52:36;57112.88;;;-144.48;39.29
10688;BME280;5392;42.688;23.298;2023-08-21T07:55:03;57083.66;;;-144.48;38.30
10688;BME280;5392;42.688;23.298;2023-08-21T07:57:30;57102.44;;;-144.48;38.40
10688;BME280;5392;42.688;23.298;2023-08-21T07:59:57;57094.09;;;-144.48;38.46
10688;BME280;5392;42.688;23.298;2023-08-21T08:02:24;57098.25;;;-144.48;38.14
10688;BME280;5392;42.688;23.298;2023-08-21T08:04:51;57077.38;;;-144.48;37.28
10688;BME280;5392;42.688;23.298;2023-08-21T08:07:18;57087.81;;;-144.48;37.69
10688;BME280;5392;42.688;23.298;2023-08-21T08:09:44;57100.34;;;-144.48;37.51
10688;BME280;5392;42.688;23.298;2023-08-21T08:12:11;57102.44;;;-144.48;38.49
10688;BME280;5392;42.688;23.298;2023-08-21T08:14:38;57140.00;;;-144.48;38.68
10688;BME280;5392;42.688;23.298;2023-08-21T08:17:05;57106.59;;;-144.48;38.77
10688;BME280;5392;42.688;23.298;2023-08-21T08:19:31;57154.59;;;-144.48;38.90
10688;BME280;5392;42.688;23.298;2023-08-21T08:21:58;57083.66;;;-144.48;39.10
10688;BME280;5392;42.688;23.298;2023-08-21T08:24:25;57114.97;;;-144.48;38.50
10688;BME280;5392;42.688;23.298;2023-08-21T08:26:52;57100.34;;;-144.48;38.68
10688;BME280;5392;42.688;23.298;2023-08-21T08:29:19;57127.47;;;-144.48;40.23
10688;BME280;5392;42.688;23.298;2023-08-21T08:31:46;57127.47;;;-144.48;39.47
10688;BME280;5392;42.688;23.298;2023-08-21T08:34:13;57123.31;;;-144.48;38.79
10688;BME280;5392;42.688;23.298;2023-08-21T08:36:40;57127.47;;;-144.48;38.40
10688;BME280;5392;42.688;23.298;2023-08-21T08:39:08;57085.75;;;-144.48;38.57
10688;BME280;5392;42.688;23.298;2023-08-21T08:41:51;57096.16;;;-144.48;38.06
10688;BME280;5392;42.688;23.298;2023-08-21T08:44:23;57071.13;;;-144.48;37.73
10688;BME280;5392;42.688;23.298;2023-08-21T08:46:51;57106.59;;;-144.48;38.28
10688;BME280;5392;42.688;23.298;2023-08-21T08:49:18;57114.97;;;-144.48;37.87
10688;BME280;5392;42.688;23.298;2023-08-21T08:51:46;57110.78;;;-144.48;38.39
10688;BME280;5392;42.688;23.298;2023-08-21T08:54:16;57125.38;;;-144.48;38.51
10688;BME280;5392;42.688;23.298;2023-08-21T08:56:43;57137.91;;;-144.48;39.31
10688;BME280;5392;42.688;23.298;2023-08-21T08:59:12;57123.31;;;-144.48;40.14
10688;BME280;5392;42.688;23.298;2023-08-21T09:01:41;57100.34;;;-144.48;39.47
10688;BME280;5392;42.688;23.298;2023-08-21T09:04:08;57114.97;;;-144.48;39.64
10688;BME280;5392;42.688;23.298;2023-08-21T09:06:36;57131.66;;;-144.48;39.04
10688;BME280;5392;42.688;23.298;2023-08-21T09:09:03;57108.69;;;-144.48;38.60
10688;BME280;5392;42.688;23.298;2023-08-21T09:11:32;57102.44;;;-144.48;39.36
10688;BME280;5392;42.688;23.298;2023-08-21T09:13:59;57133.75;;;-144.48;39.37
10688;BME280;5392;42.688;23.298;2023-08-21T09:16:26;57188.00;;;-144.48;40.11
10688;BME280;5392;42.688;23.298;2023-08-21T09:18:55;57127.47;;;-144.48;40.59
10688;BME280;5392;42.688;23.298;2023-08-21T09:21:26;57140.00;;;-144.48;41.43
10688;BME280;5392;42.688;23.298;2023-08-21T09:23:59;57108.69;;;-144.48;41.88
10688;BME280;5392;42.688;23.298;2023-08-21T09:26:26;57158.78;;;-144.48;41.98
10688;BME280;5392;42.688;23.298;2023-08-21T09:28:53;57133.75;;;-144.48;41.99
10688;BME280;5392;42.688;23.298;2023-08-21T09:31:29;57179.66;;;-144.48;42.96
10688;BME280;5392;42.688;23.298;2023-08-21T09:33:58;57171.31;;;-144.48;43.50
10688;BME280;5392;42.688;23.298;2023-08-21T09:36:25;57192.19;;;-144.48;43.96
10688;BME280;5392;42.688;23.298;2023-08-21T09:38:53;57190.09;;;-144.48;44.31
10688;BME280;5392;42.688;23.298;2023-08-21T09:41:20;57181.75;;;-144.48;43.36
10688;BME280;5392;42.688;23.298;2023-08-21T09:43:47;57185.91;;;-144.48;43.38
10688;BME280;5392;42.688;23.298;2023-08-21T09:46:23;57221.41;;;-144.48;44.47
10688;BME280;5392;42.688;23.298;2023-08-21T09:48:52;57202.63;;;-144.48;43.79
10688;BME280;5392;42.688;23.298;2023-08-21T09:51:19;57150.44;;;-144.48;43.34
10688;BME280;5392;42.688;23.298;2023-08-21T09:53:50;57208.88;;;-144.48;43.18
10688;BME280;5392;42.688;23.298;2023-08-21T09:56:18;57146.25;;;-144.48;43.27
10688;BME280;5392;42.688;23.298;2023-08-21T09:58:48;57156.69;;;-144.48;42.93
10688;BME280;5392;42.688;23.298;2023-08-21T10:01:17;57190.09;;;-144.48;43.30
10688;BME280;5392;42.688;23.298;2023-08-21T10:03:47;57181.75;;;-144.48;43.87
10688;BME280;5392;42.688;23.298;2023-08-21T10:06:16;57192.19;;;-144.48;43.79
10688;BME280;5392;42.688;23.298;2023-08-21T10:08:52;57169.22;;;-144.48;42.81
10688;BME280;5392;42.688;23.298;2023-08-21T10:11:20;57179.66;;;-144.48;42.14
10688;BME280;5392;42.688;23.298;2023-08-21T10:13:48;57206.78;;;-144.48;43.46
10688;BME280;5392;42.688;23.298;2023-08-21T10:16:18;57183.84;;;-144.48;43.43
10688;BME280;5392;42.688;23.298;2023-08-21T10:18:45;57177.56;;;-144.48;42.93
10688;BME280;5392;42.688;23.298;2023-08-21T10:21:14;57210.97;;;-144.48;43.17
10688;BME280;5392;42.688;23.298;2023-08-21T10:23:42;57233.91;;;-144.48;43.54
10688;BME280;5392;42.688;23.298;2023-08-21T10:26:12;57156.69;;;-144.48;43.56
10688;BME280;5392;42.688;23.298;2023-08-21T10:28:59;57179.66;;;-144.48;43.49
10688;BME280;5392;42.688;23.298;2023-08-21T10:33:57;57179.66;;;-144.48;43.26
10688;BME280;5392;42.688;23.298;2023-08-21T10:39:27;57167.13;;;-144.48;43.39
10688;BME280;5392;42.688;23.298;2023-08-21T10:42:05;57202.63;;;-144.48;43.69
10688;BME280;5392;42.688;23.298;2023-08-21T10:49:41;57190.09;;;-144.48;43.11
10688;BME280;5392;42.688;23.298;2023-08-21T10:52:09;57188.00;;;-144.48;43.69
10688;BME280;5392;42.688;23.298;2023-08-21T10:54:43;57188.00;;;-144.48;43.14
10688;BME280;5392;42.688;23.298;2023-08-21T10:57:10;57165.03;;;-144.48;42.69
10688;BME280;5392;42.688;23.298;2023-08-21T10:59:37;57150.44;;;-144.48;42.39
10688;BME280;5392;42.688;23.298;2023-08-21T11:02:05;57188.00;;;-144.48;42.16
10688;BME280;5392;42.688;23.298;2023-08-21T11:04:40;57169.22;;;-144.48;41.83
10688;BME280;5392;42.688;23.298;2023-08-21T11:07:08;57140.00;;;-144.48;41.31
10688;BME280;5392;42.688;23.298;2023-08-21T11:09:38;57148.34;;;-144.48;41.68
10688;BME280;5392;42.688;23.298;2023-08-21T11:12:07;57154.59;;;-144.48;41.53
10688;BME280;5392;42.688;23.298;2023-08-21T11:14:34;57154.59;;;-144.48;41.88
10688;BME280;5392;42.688;23.298;2023-08-21T11:17:01;57158.78;;;-144.48;41.68
10688;BME280;5392;42.688;23.298;2023-08-21T11:19:35;57202.63;;;-144.48;41.86
10688;BME280;5392;42.688;23.298;2023-08-21T11:22:03;57215.13;;;-144.48;41.71
10688;BME280;5392;42.688;23.298;2023-08-21T11:24:41;57152.53;;;-144.48;42.50
10688;BME280;5392;42.688;23.298;2023-08-21T11:27:09;57171.31;;;-144.48;41.94
10688;BME280;5392;42.688;23.298;2023-08-21T11:29:38;57185.91;;;-144.48;42.20
10688;BME280;5392;42.688;23.298;2023-08-21T11:34:41;57162.97;;;-144.48;41.76
10688;BME280;5392;42.688;23.298;2023-08-21T11:37:08;57150.44;;;-144.48;42.36
10688;BME280;5392;42.688;23.298;2023-08-21T11:39:43;57196.34;;;-144.48;42.01
10688;BME280;5392;42.688;23.298;2023-08-21T11:42:11;57162.97;;;-144.48;42.28
10688;BME280;5392;42.688;23.298;2023-08-21T11:44:47;57154.59;;;-144.48;42.09
10688;BME280;5392;42.688;23.298;2023-08-21T11:47:15;57158.78;;;-144.48;41.61
10688;BME280;5392;42.688;23.298;2023-08-21T11:49:44;57200.53;;;-144.48;41.82
10688;BME280;5392;42.688;23.298;2023-08-21T11:52:18;57154.59;;;-144.48;41.57
10688;BME280;5392;42.688;23.298;2023-08-21T11:54:50;57183.84;;;-144.48;41.99
10688;BME280;5392;42.688;23.298;2023-08-21T11:57:18;57133.75;;;-144.48;42.09
10688;BME280;5392;42.688;23.298;2023-08-21T11:59:54;57198.44;;;-144.48;42.25
10688;BME280;5392;42.688;23.298;2023-08-21T12:02:27;57206.78;;;-144.48;42.24
10688;BME280;5392;42.688;23.298;2023-08-21T12:05:01;57192.19;;;-144.48;41.72
10688;BME280;5392;42.688;23.298;2023-08-21T12:07:29;57150.44;;;-144.48;41.66
10688;BME280;5392;42.688;23.298;2023-08-21T12:09:56;57162.97;;;-144.48;41.34
10688;BME280;5392;42.688;23.298;2023-08-21T12:12:23;57177.56;;;-144.48;41.65
10688;BME280;5392;42.688;23.298;2023-08-21T12:14:50;57140.00;;;-144.48;41.05
10688;BME280;5392;42.688;23.298;2023-08-21T12:17:17;57171.31;;;-144.48;41.45
10688;BME280;5392;42.688;23.298;2023-08-21T12:19:44;57160.88;;;-144.48;41.32
10688;BME280;5392;42.688;23.298;2023-08-21T12:22:11;57179.66;;;-144.48;41.33
10688;BME280;5392;42.688;23.298;2023-08-21T12:24:39;57165.03;;;-144.48;41.04
10688;BME280;5392;42.688;23.298;2023-08-21T12:27:06;57169.22;;;-144.48;41.01
10688;BME280;5392;42.688;23.298;2023-08-21T12:29:34;57173.41;;;-144.48;41.28
10688;BME280;5392;42.688;23.298;2023-08-21T12:32:01;57150.44;;;-144.48;41.15
10688;BME280;5392;42.688;23.298;2023-08-21T12:34:29;57152.53;;;-144.48;41.46
10688;BME280;5392;42.688;23.298;2023-08-21T12:36:56;57154.59;;;-144.48;41.52
10688;BME280;5392;42.688;23.298;2023-08-21T12:39:23;57162.97;;;-144.48;41.50
10688;BME280;5392;42.688;23.298;2023-08-21T12:41:50;57150.44;;;-144.48;42.14
10688;BME280;5392;42.688;23.298;2023-08-21T12:47:09;57181.75;;;-144.48;41.97
10688;BME280;5392;42.688;23.298;2023-08-21T12:49:36;57192.19;;;-144.48;42.07
10688;BME280;5392;42.688;23.298;2023-08-21T12:52:27;57162.97;;;-144.48;41.92
10688;BME280;5392;42.688;23.298;2023-08-21T12:54:53;57160.88;;;-144.48;41.83
10688;BME280;5392;42.688;23.298;2023-08-21T12:57:20;57137.91;;;-144.48;41.39
10688;BME280;5392;42.688;23.298;2023-08-21T12:59:48;57175.47;;;-144.48;41.07
10688;BME280;5392;42.688;23.298;2023-08-21T13:02:15;57173.41;;;-144.48;41.33
10688;BME280;5392;42.688;23.298;2023-08-21T13:04:42;57158.78;;;-144.48;41.53